Terminal Aerodrome Forecast
Issued by NWS Cleveland, OH

Home | Current Version | Previous Version | Text Only | Print | Product List | Glossary On
Versions: 1 2 3 4 5 6 7 8 9 10 11 12 13 14 15 16
000
FTUS41 KCLE 080540
TAFMFD
TAF
KMFD 080540Z 0806/0906 01008KT 6SM BR OVC006
      TEMPO 0809/0813 SCT006 OVC012
     FM081300 02008KT P6SM SCT006 OVC012
     FM081700 03005KT P6SM SCT012 OVC025
     FM090000 VRB03KT P6SM SCT025 OVC035
     FM090400 VRB03KT P6SM VCSH BKN030 OVC080=

USA.gov is the U.S. government's official web portal to all federal, state and local government web resources and services.